Time;durP1;ratioP1;P1;durP2;ratioP2;P2;SDS_P1;SDS_P2;PMS_P1;PMS_P2;Temp;Humidity;BMP_temperature;BMP_pressure;BME280_temperature;BME280_humidity;BME280_pressure;Samples;Min_cycle;Max_cycle;Signal;HPM_P1;HPM_P2
2024/01/11 00:01:29;;;;;;;47.40;20.20;;;-4.00;99.70;;;;;;5054792;28;20202;-78
2024/01/11 00:03:56;;;;;;;53.00;20.97;;;-4.10;99.90;;;;;;5052487;28;20309;-78
2024/01/11 00:06:22;;;;;;;44.20;20.10;;;-4.00;99.90;;;;;;5057034;28;21024;-78
2024/01/11 00:08:49;;;;;;;54.47;20.60;;;-4.00;99.90;;;;;;5051761;28;20211;-78
2024/01/11 00:11:16;;;;;;;52.50;20.20;;;-4.00;99.90;;;;;;5050617;28;20556;-78
2024/01/11 00:13:43;;;;;;;44.80;20.17;;;-4.00;99.90;;;;;;5052705;28;20236;-80
2024/01/11 00:16:11;;;;;;;46.13;20.47;;;-4.00;99.90;;;;;;5064039;28;20248;-78
2024/01/11 00:18:39;;;;;;;50.20;21.00;;;-4.00;99.90;;;;;;5053118;28;20214;-80
2024/01/11 00:21:06;;;;;;;55.77;22.43;;;-4.00;99.90;;;;;;5057562;28;20250;-78
2024/01/11 00:23:32;;;;;;;50.43;20.40;;;-3.90;99.90;;;;;;5038124;28;20197;-78
2024/01/11 00:25:59;;;;;;;48.67;19.57;;;-3.90;99.90;;;;;;5053904;28;20646;-78
2024/01/11 00:28:26;;;;;;;41.57;19.07;;;-3.70;99.80;;;;;;5061844;28;20204;-78
2024/01/11 00:30:53;;;;;;;42.87;18.50;;;-3.70;99.50;;;;;;5050646;28;20216;-79
2024/01/11 00:33:21;;;;;;;45.30;20.07;;;-3.70;99.00;;;;;;5053404;28;20209;-78
2024/01/11 00:35:48;;;;;;;58.33;20.10;;;-3.60;98.50;;;;;;5052896;28;20200;-77
2024/01/11 00:38:14;;;;;;;48.57;20.20;;;-3.50;98.50;;;;;;5052185;28;20214;-79
2024/01/11 00:40:41;;;;;;;48.23;19.93;;;-3.60;98.40;;;;;;5058849;28;20194;-78
2024/01/11 00:43:09;;;;;;;51.10;19.97;;;-3.60;98.40;;;;;;5058469;28;20241;-80
2024/01/11 00:45:36;;;;;;;48.07;20.87;;;-3.50;98.50;;;;;;5053432;28;20190;-79
2024/01/11 00:48:03;;;;;;;46.57;19.57;;;-3.50;98.50;;;;;;5058678;28;20193;-78
2024/01/11 00:50:31;;;;;;;48.03;20.23;;;-3.70;98.40;;;;;;5050215;28;20248;-79
2024/01/11 00:52:58;;;;;;;46.50;18.27;;;-3.50;98.50;;;;;;5053018;28;20206;-78
2024/01/11 00:55:25;;;;;;;46.20;20.50;;;-3.60;98.40;;;;;;5053683;28;20221;-77
2024/01/11 00:57:52;;;;;;;50.43;18.53;;;-3.60;98.40;;;;;;5054592;28;20216;-77
2024/01/11 01:00:19;;;;;;;43.90;18.10;;;-3.50;98.10;;;;;;5058729;28;20212;-78
2024/01/11 01:02:46;;;;;;;39.37;17.87;;;-3.50;98.10;;;;;;5059832;28;20201;-78
2024/01/11 01:05:18;;;;;;;44.97;18.53;;;-3.50;98.10;;;;;;5050549;28;20558;-77
2024/01/11 01:07:46;;;;;;;40.57;17.30;;;-3.40;98.10;;;;;;5051585;28;20204;-79
2024/01/11 01:10:13;;;;;;;42.10;18.00;;;-3.40;97.80;;;;;;5051495;28;20198;-78
2024/01/11 01:12:39;;;;;;;43.80;19.17;;;-3.50;97.60;;;;;;5053598;28;20204;-78
2024/01/11 01:15:07;;;;;;;52.13;20.30;;;-3.50;97.50;;;;;;5052931;28;20231;-78
2024/01/11 01:17:34;;;;;;;59.33;21.90;;;-3.70;97.80;;;;;;5052047;28;20710;-77
2024/01/11 01:20:01;;;;;;;51.47;21.33;;;-3.70;98.10;;;;;;5056498;28;20207;-78
2024/01/11 01:22:28;;;;;;;52.03;21.67;;;-3.70;98.40;;;;;;5052865;28;20198;-78
2024/01/11 01:24:56;;;;;;;72.27;20.93;;;-3.80;98.40;;;;;;5048963;28;20281;-78
2024/01/11 01:27:24;;;;;;;47.23;20.50;;;-3.90;98.80;;;;;;5053429;28;20198;-77
2024/01/11 01:29:51;;;;;;;48.97;21.00;;;-3.80;99.20;;;;;;5054060;28;20209;-78
2024/01/11 01:32:18;;;;;;;52.70;20.43;;;-3.70;98.40;;;;;;5056983;28;20202;-78
2024/01/11 01:34:44;;;;;;;56.73;20.63;;;-3.80;98.40;;;;;;5055169;28;20751;-77
2024/01/11 01:37:11;;;;;;;50.90;20.27;;;-3.90;98.40;;;;;;5055334;28;20216;-78
2024/01/11 01:39:38;;;;;;;50.07;20.50;;;-4.10;98.30;;;;;;5032846;28;20730;-78
2024/01/11 01:42:07;;;;;;;47.47;20.17;;;-4.10;98.90;;;;;;5047396;28;20320;-78
2024/01/11 01:44:34;;;;;;;47.53;20.00;;;-4.10;99.00;;;;;;5058841;28;20197;-78
2024/01/11 01:47:01;;;;;;;39.03;18.03;;;-4.00;99.10;;;;;;5057322;28;20200;-77
2024/01/11 01:49:28;;;;;;;53.47;19.20;;;-3.90;98.90;;;;;;5051149;28;20423;-78
2024/01/11 01:51:56;;;;;;;45.80;19.47;;;-3.90;98.40;;;;;;5057336;28;20193;-77
2024/01/11 01:54:24;;;;;;;45.87;19.87;;;-3.80;98.40;;;;;;5051862;28;20229;-78
2024/01/11 01:56:52;;;;;;;44.60;18.37;;;-3.60;98.40;;;;;;5057249;28;20201;-78
2024/01/11 01:59:22;;;;;;;45.90;19.43;;;-3.80;98.10;;;;;;5058448;28;20205;-80
2024/01/11 02:01:49;;;;;;;42.37;18.00;;;-3.90;98.40;;;;;;5059941;28;20301;-78
2024/01/11 02:04:16;;;;;;;45.53;19.33;;;-4.00;98.30;;;;;;5057499;28;20221;-79
2024/01/11 02:06:45;;;;;;;47.77;19.00;;;-4.00;98.30;;;;;;5059188;28;20221;-79
2024/01/11 02:09:14;;;;;;;59.37;20.40;;;-4.10;98.30;;;;;;5057115;28;20202;-78
2024/01/11 02:11:42;;;;;;;45.97;20.07;;;-4.20;98.30;;;;;;5067534;28;20193;-78
2024/01/11 02:14:09;;;;;;;45.00;19.90;;;-4.30;98.90;;;;;;5035751;28;20226;-78
2024/01/11 02:16:38;;;;;;;50.03;19.53;;;-4.20;99.30;;;;;;5054811;28;20205;-78
2024/01/11 02:19:07;;;;;;;48.00;19.03;;;-4.20;99.30;;;;;;5059328;28;20645;-78
2024/01/11 02:21:35;;;;;;;44.30;18.67;;;-4.20;99.10;;;;;;5055230;28;20200;-78
2024/01/11 02:24:08;;;;;;;44.53;18.53;;;-4.20;99.20;;;;;;5059531;28;20562;-78
2024/01/11 02:26:35;;;;;;;46.93;18.80;;;-4.20;99.10;;;;;;5051984;28;20208;-78
2024/01/11 02:29:02;;;;;;;45.50;19.63;;;-4.30;99.00;;;;;;5057219;28;20653;-78
2024/01/11 02:31:29;;;;;;;43.90;18.57;;;-4.30;99.10;;;;;;5057873;28;20197;-79
2024/01/11 02:34:16;;;;;;;51.03;19.70;;;-4.40;99.60;;;;;;5055776;28;20202;-78
2024/01/11 02:36:44;;;;;;;41.60;18.67;;;-4.50;99.50;;;;;;5048986;28;20210;-78
2024/01/11 02:39:13;;;;;;;36.87;17.67;;;-4.40;99.60;;;;;;5049368;28;20210;-79
2024/01/11 02:41:40;;;;;;;42.17;17.60;;;-4.20;99.70;;;;;;5050107;28;20231;-78
2024/01/11 02:44:07;;;;;;;49.43;17.43;;;-4.00;98.80;;;;;;5059477;28;20547;-78
2024/01/11 02:46:34;;;;;;;35.13;15.43;;;-3.90;98.40;;;;;;5037329;28;20205;-78
2024/01/11 02:49:01;;;;;;;37.63;17.00;;;-3.80;98.00;;;;;;5057965;28;20286;-78
2024/01/11 02:51:28;;;;;;;40.93;17.73;;;-3.90;97.60;;;;;;5054438;28;20841;-78
2024/01/11 02:53:55;;;;;;;58.37;18.80;;;-3.90;97.70;;;;;;5056153;28;20213;-78
2024/01/11 02:56:23;;;;;;;40.47;18.53;;;-4.00;97.80;;;;;;5051912;28;20654;-78
2024/01/11 02:58:50;;;;;;;46.27;19.10;;;-4.00;98.20;;;;;;5051609;28;20547;-78
2024/01/11 03:01:17;;;;;;;64.00;19.87;;;-4.20;98.30;;;;;;5052621;28;20202;-78
2024/01/11 03:03:44;;;;;;;50.50;19.60;;;-4.20;98.30;;;;;;5053920;28;20205;-77
2024/01/11 03:06:10;;;;;;;55.73;18.03;;;-4.10;98.30;;;;;;5052114;28;20205;-78
2024/01/11 03:08:37;;;;;;;41.40;18.30;;;-4.10;98.30;;;;;;5056268;28;20194;-77
2024/01/11 03:11:04;;;;;;;49.13;17.93;;;-4.00;98.80;;;;;;5053123;28;20204;-79
2024/01/11 03:13:32;;;;;;;51.47;17.77;;;-3.70;99.70;;;;;;5057371;28;20563;-77
2024/01/11 03:15:59;;;;;;;54.13;17.70;;;-4.00;98.30;;;;;;5056064;28;20219;-79
2024/01/11 03:18:26;;;;;;;73.97;19.63;;;-4.30;98.30;;;;;;5053810;28;20208;-78
2024/01/11 03:20:52;;;;;;;72.80;18.77;;;-4.50;98.30;;;;;;5054031;28;20197;-79
2024/01/11 03:23:19;;;;;;;83.17;19.27;;;-4.60;98.90;;;;;;5036181;28;20209;-79
2024/01/11 03:25:46;;;;;;;107.17;20.00;;;-4.70;99.30;;;;;;5054177;28;20679;-77
2024/01/11 03:28:13;;;;;;;91.43;19.60;;;-4.80;99.70;;;;;;5052403;28;20207;-77
2024/01/11 03:30:42;;;;;;;125.80;20.00;;;-4.60;99.90;;;;;;5053058;28;20594;-78
2024/01/11 03:33:08;;;;;;;63.00;18.07;;;-4.70;99.90;;;;;;5058922;28;20639;-78
2024/01/11 03:35:38;;;;;;;48.83;18.93;;;-4.70;99.90;;;;;;5060593;28;20222;-78
2024/01/11 03:38:05;;;;;;;57.30;18.97;;;-4.50;99.90;;;;;;5060825;28;20288;-79
2024/01/11 03:40:32;;;;;;;78.07;18.47;;;-4.00;99.90;;;;;;5050993;28;20259;-78
2024/01/11 03:42:59;;;;;;;120.37;20.50;;;-4.20;99.90;;;;;;5054515;28;20220;-78
2024/01/11 03:45:34;;;;;;;39.70;17.33;;;-4.40;99.90;;;;;;5053715;28;20212;-78
2024/01/11 03:48:02;;;;;;;71.97;18.77;;;-4.50;99.90;;;;;;5051159;28;20276;-77
2024/01/11 03:50:29;;;;;;;42.93;18.23;;;-4.30;99.90;;;;;;5048367;28;20205;-77
2024/01/11 03:52:56;;;;;;;46.10;17.23;;;-3.80;99.90;;;;;;5058868;28;20201;-78
2024/01/11 03:55:22;;;;;;;48.20;17.77;;;-3.70;99.90;;;;;;5052079;28;20225;-78
2024/01/11 03:57:49;;;;;;;44.90;17.77;;;-3.40;99.80;;;;;;5052353;28;20194;-78
2024/01/11 04:00:17;;;;;;;50.77;18.83;;;-3.40;99.30;;;;;;5055569;28;20205;-78
2024/01/11 04:02:44;;;;;;;43.97;18.43;;;-3.50;98.50;;;;;;5049213;28;20198;-78
2024/01/11 04:05:15;;;;;;;40.83;17.57;;;-3.60;99.20;;;;;;5054014;28;20258;-78
2024/01/11 04:07:42;;;;;;;46.83;18.50;;;-3.70;98.40;;;;;;5053665;28;20194;-78
2024/01/11 04:10:10;;;;;;;43.90;18.13;;;-3.70;98.70;;;;;;5061267;28;20201;-79
2024/01/11 04:12:37;;;;;;;42.43;18.43;;;-3.90;98.60;;;;;;5061185;28;20194;-77
2024/01/11 04:15:04;;;;;;;43.67;18.63;;;-4.00;98.70;;;;;;5062753;28;20720;-77
2024/01/11 04:17:31;;;;;;;41.80;18.07;;;-3.80;99.90;;;;;;5059463;28;20211;-77
2024/01/11 04:19:58;;;;;;;43.00;17.43;;;-3.90;99.00;;;;;;5052476;28;20200;-78
2024/01/11 04:22:29;;;;;;;38.73;17.30;;;-3.50;99.90;;;;;;5059391;28;20261;-79
2024/01/11 04:24:56;;;;;;;42.13;17.67;;;-3.40;98.50;;;;;;5068894;28;20205;-78
2024/01/11 04:27:23;;;;;;;37.67;17.80;;;-3.30;99.00;;;;;;5055953;28;20198;-78
2024/01/11 04:29:49;;;;;;;41.07;18.07;;;-2.80;99.00;;;;;;5053585;28;20194;-78
2024/01/11 04:32:16;;;;;;;43.33;19.03;;;-2.60;97.60;;;;;;5049625;28;20210;-78
2024/01/11 04:34:43;;;;;;;47.80;19.10;;;-3.00;95.40;;;;;;5052095;28;20194;-78
2024/01/11 04:37:10;;;;;;;48.27;19.27;;;-3.50;95.60;;;;;;5053532;28;20676;-78
2024/01/11 04:39:38;;;;;;;43.83;18.47;;;-3.80;96.70;;;;;;5055389;28;20198;-77
2024/01/11 04:42:05;;;;;;;45.50;19.43;;;-4.10;97.70;;;;;;5056524;28;20665;-77
2024/01/11 04:44:31;;;;;;;46.60;18.93;;;-4.30;98.30;;;;;;5049833;28;20211;-78
2024/01/11 04:46:58;;;;;;;45.63;19.80;;;-4.30;99.20;;;;;;5056068;28;20220;-78
2024/01/11 04:49:25;;;;;;;44.27;18.73;;;-4.40;99.80;;;;;;5033090;28;20194;-78
2024/01/11 04:51:52;;;;;;;47.03;18.77;;;-4.30;99.90;;;;;;5047812;28;20946;-78
2024/01/11 04:54:19;;;;;;;54.23;19.13;;;-4.10;99.90;;;;;;5048949;28;20645;-78
2024/01/11 04:56:47;;;;;;;47.00;18.50;;;-4.10;99.90;;;;;;5057474;28;20221;-78
2024/01/11 04:59:14;;;;;;;53.40;20.20;;;-4.10;99.90;;;;;;5044079;28;21581;-77
2024/01/11 05:01:41;;;;;;;44.10;18.67;;;-4.10;99.70;;;;;;5054829;28;20198;-77
2024/01/11 05:04:08;;;;;;;42.47;19.17;;;-4.20;99.70;;;;;;5055266;28;20225;-78
2024/01/11 05:06:34;;;;;;;45.53;18.90;;;-4.10;99.90;;;;;;5056278;28;20198;-77
2024/01/11 05:09:01;;;;;;;41.50;19.20;;;-3.60;99.90;;;;;;5040041;28;20255;-78
2024/01/11 05:11:28;;;;;;;44.17;17.70;;;-3.60;99.80;;;;;;5059481;28;20206;-78
2024/01/11 05:13:56;;;;;;;47.13;18.83;;;-3.80;99.10;;;;;;5047461;28;20245;-78
2024/01/11 05:16:25;;;;;;;40.23;17.87;;;-3.90;98.80;;;;;;5050279;28;20225;-78
2024/01/11 05:18:52;;;;;;;46.03;19.47;;;-4.10;98.70;;;;;;5050567;28;20190;-78
2024/01/11 05:21:19;;;;;;;47.27;18.37;;;-4.20;99.00;;;;;;5052951;28;20197;-78
2024/01/11 05:23:46;;;;;;;41.67;18.03;;;-4.00;99.90;;;;;;5052217;28;20198;-76
2024/01/11 05:26:15;;;;;;;43.53;17.63;;;-4.10;99.50;;;;;;5052545;28;20229;-78
2024/01/11 05:28:42;;;;;;;39.90;17.97;;;-4.20;99.30;;;;;;5041774;28;20243;-77
2024/01/11 05:31:11;;;;;;;45.50;18.00;;;-4.30;99.30;;;;;;5051134;28;20205;-77
2024/01/11 05:33:38;;;;;;;46.10;17.97;;;-4.30;99.30;;;;;;5056599;28;20212;-77
2024/01/11 05:36:05;;;;;;;40.57;16.87;;;-4.40;99.50;;;;;;5054909;28;20217;-77
2024/01/11 05:38:32;;;;;;;39.17;18.03;;;-4.40;99.80;;;;;;5054301;28;20200;-80
2024/01/11 05:40:59;;;;;;;41.97;16.87;;;-4.40;99.40;;;;;;5051222;28;20201;-78
2024/01/11 05:43:33;;;;;;;40.77;17.40;;;-4.40;99.00;;;;;;5050320;28;20545;-77
2024/01/11 05:46:00;;;;;;;39.47;17.17;;;-4.60;98.80;;;;;;5047120;28;20190;-79
2024/01/11 05:48:28;;;;;;;39.23;16.93;;;-4.70;99.30;;;;;;5053089;28;20336;-77
2024/01/11 05:50:55;;;;;;;64.27;17.37;;;-4.80;99.80;;;;;;5046158;28;20208;-79
2024/01/11 05:53:22;;;;;;;48.37;17.87;;;-4.80;99.90;;;;;;5051659;28;20202;-78
2024/01/11 05:55:49;;;;;;;57.43;18.37;;;-4.90;99.90;;;;;;5047055;28;20217;-81
2024/01/11 05:58:16;;;;;;;39.30;17.73;;;-5.00;99.90;;;;;;5050648;28;20570;-81
2024/01/11 06:00:42;;;;;;;52.63;18.33;;;-5.00;99.90;;;;;;5053150;28;20566;-80
2024/01/11 06:03:09;;;;;;;67.13;18.43;;;-4.90;99.90;;;;;;5049365;28;20556;-80
2024/01/11 06:05:37;;;;;;;52.63;17.27;;;-4.90;99.90;;;;;;5057186;28;20217;-84
2024/01/11 06:08:05;;;;;;;42.27;16.60;;;-4.90;99.90;;;;;;5052168;28;20672;-79
2024/01/11 06:10:32;;;;;;;45.20;16.60;;;-4.90;99.90;;;;;;5048549;28;20295;-85
2024/01/11 06:12:58;;;;;;;53.90;16.73;;;-4.90;99.90;;;;;;5057623;28;20204;-79
2024/01/11 06:15:25;;;;;;;39.43;17.07;;;-4.90;99.90;;;;;;5047660;28;20228;-78
2024/01/11 06:17:52;;;;;;;42.93;16.33;;;-5.00;99.90;;;;;;5047326;28;20197;-79
2024/01/11 06:20:19;;;;;;;56.30;16.57;;;-5.00;99.90;;;;;;5057911;28;20198;-79
2024/01/11 06:22:47;;;;;;;86.73;16.43;;;-4.30;99.90;;;;;;5050907;28;20201;-78
2024/01/11 06:25:14;;;;;;;82.27;16.97;;;-4.50;99.90;;;;;;5054650;28;20562;-78
2024/01/11 06:27:43;;;;;;;96.50;17.23;;;-4.60;99.50;;;;;;5053836;28;20287;-79
2024/01/11 06:30:10;;;;;;;37.50;15.77;;;-4.80;99.60;;;;;;5063507;28;20193;-78
2024/01/11 06:32:37;;;;;;;64.10;15.47;;;-4.80;99.90;;;;;;5056468;28;20199;-79
2024/01/11 06:35:05;;;;;;;92.93;17.60;;;-4.90;99.90;;;;;;5057074;28;20205;-78
2024/01/11 06:37:32;;;;;;;80.77;17.67;;;-4.90;99.90;;;;;;5057091;28;20209;-79
2024/01/11 06:40:00;;;;;;;99.97;17.73;;;-4.90;99.90;;;;;;5060733;28;20204;-78
2024/01/11 06:42:26;;;;;;;45.73;15.60;;;-5.00;99.90;;;;;;5056738;28;20213;-78
2024/01/11 06:44:53;;;;;;;49.67;17.03;;;-5.00;99.90;;;;;;5061269;28;20207;-79
2024/01/11 06:47:21;;;;;;;37.37;14.57;;;-5.00;99.90;;;;;;5058082;28;20287;-78
2024/01/11 06:49:48;;;;;;;38.27;14.87;;;-4.90;99.90;;;;;;5053460;28;20239;-79
2024/01/11 06:52:15;;;;;;;37.47;14.77;;;-4.90;99.90;;;;;;5060174;28;20205;-78
2024/01/11 06:54:41;;;;;;;75.47;16.73;;;-5.00;99.90;;;;;;5055501;28;20211;-78
2024/01/11 06:57:10;;;;;;;32.73;14.50;;;-5.00;99.90;;;;;;5053763;28;20229;-81
2024/01/11 06:59:37;;;;;;;31.40;14.70;;;-5.10;99.90;;;;;;5050400;28;20200;-78
2024/01/11 07:02:04;;;;;;;32.07;13.83;;;-5.10;99.90;;;;;;5063236;28;20197;-78
2024/01/11 07:04:31;;;;;;;30.57;13.80;;;-4.90;99.90;;;;;;5046692;28;20225;-78
2024/01/11 07:06:58;;;;;;;26.37;12.70;;;-4.70;99.40;;;;;;5048626;28;20219;-78
2024/01/11 07:09:25;;;;;;;29.13;13.63;;;-4.90;98.20;;;;;;5050674;28;20197;-78
2024/01/11 07:11:52;;;;;;;31.20;14.03;;;-5.00;98.10;;;;;;5051962;28;20303;-81
2024/01/11 07:14:32;;;;;;;32.07;13.73;;;-5.10;98.10;;;;;;5046121;28;20542;-78
2024/01/11 07:16:59;;;;;;;29.97;13.73;;;-5.10;98.10;;;;;;5046729;28;20258;-78
2024/01/11 07:19:26;;;;;;;30.60;14.47;;;-5.10;98.40;;;;;;5059106;28;20201;-78
2024/01/11 07:21:53;;;;;;;29.77;14.07;;;-5.10;98.40;;;;;;5048922;28;20207;-79
2024/01/11 07:24:20;;;;;;;29.40;14.13;;;-5.10;98.10;;;;;;5055544;28;20224;-79
2024/01/11 07:26:47;;;;;;;29.10;13.50;;;-5.20;97.40;;;;;;5056877;28;20319;-78
2024/01/11 07:29:14;;;;;;;29.40;14.00;;;-5.20;97.10;;;;;;5053069;28;20201;-78
2024/01/11 07:31:42;;;;;;;27.30;13.27;;;-5.00;97.10;;;;;;5052447;28;20199;-78
2024/01/11 07:34:08;;;;;;;27.73;13.83;;;-4.70;97.70;;;;;;5054596;28;20633;-78
2024/01/11 07:36:35;;;;;;;31.03;14.10;;;-4.40;97.20;;;;;;5050803;28;20606;-78
2024/01/11 07:39:02;;;;;;;28.47;13.40;;;-4.10;97.30;;;;;;5058207;28;20211;-79
2024/01/11 07:41:29;;;;;;;28.20;13.63;;;-3.90;98.30;;;;;;5043987;28;20251;-78
2024/01/11 07:43:58;;;;;;;30.97;14.77;;;-4.20;95.50;;;;;;5054378;28;20201;-79
2024/01/11 07:46:25;;;;;;;32.37;14.73;;;-4.50;95.30;;;;;;5051338;28;20198;-81
2024/01/11 07:48:53;;;;;;;30.00;14.03;;;-4.60;95.30;;;;;;5046098;28;20900;-80
2024/01/11 07:51:20;;;;;;;34.73;14.80;;;-4.50;96.60;;;;;;5053921;28;20205;-79
2024/01/11 07:53:47;;;;;;;30.30;14.30;;;-4.40;96.70;;;;;;5052085;28;20199;-77
2024/01/11 07:56:13;;;;;;;33.37;15.70;;;-4.50;96.80;;;;;;5049172;28;20218;-78
2024/01/11 07:58:41;;;;;;;34.80;15.10;;;-4.50;97.00;;;;;;5050726;28;20197;-79
2024/01/11 08:01:08;;;;;;;32.93;15.13;;;-4.50;97.80;;;;;;5055739;28;20201;-79
2024/01/11 08:03:35;;;;;;;33.50;15.20;;;-3.90;99.90;;;;;;5045131;28;20206;-78
2024/01/11 08:06:04;;;;;;;31.00;15.07;;;-3.90;97.90;;;;;;5050693;28;20757;-78
2024/01/11 08:08:30;;;;;;;39.30;16.43;;;-4.10;97.20;;;;;;5043847;28;20198;-78
2024/01/11 08:10:57;;;;;;;38.97;16.27;;;-4.10;97.40;;;;;;5043591;28;20218;-78
2024/01/11 08:13:24;;;;;;;37.03;16.57;;;-3.70;99.80;;;;;;5045335;28;20194;-78
2024/01/11 08:15:51;;;;;;;32.33;15.37;;;-3.30;98.80;;;;;;5045934;28;20779;-81
2024/01/11 08:18:19;;;;;;;33.90;14.80;;;-3.00;98.60;;;;;;5049582;28;20198;-79
2024/01/11 08:20:46;;;;;;;37.23;16.67;;;-2.80;98.60;;;;;;5053204;28;20208;-79
2024/01/11 08:23:14;;;;;;;31.93;15.77;;;-2.60;96.80;;;;;;5053882;28;20204;-77
2024/01/11 08:25:41;;;;;;;40.03;17.40;;;-3.00;96.00;;;;;;5060667;28;20205;-77
2024/01/11 08:28:08;;;;;;;35.27;16.80;;;-2.90;95.90;;;;;;5058330;28;20197;-79
2024/01/11 08:30:34;;;;;;;43.90;19.17;;;-3.00;95.70;;;;;;5052246;28;20195;-79
2024/01/11 08:33:01;;;;;;;39.17;17.53;;;-3.00;94.90;;;;;;5053822;28;20216;-77
2024/01/11 08:35:28;;;;;;;43.03;18.30;;;-3.10;95.90;;;;;;5055598;28;20194;-77
2024/01/11 08:37:56;;;;;;;41.43;18.33;;;-3.30;95.00;;;;;;5054460;28;20232;-78
2024/01/11 08:40:25;;;;;;;47.67;18.77;;;-3.60;95.90;;;;;;5054653;28;20254;-77
2024/01/11 08:42:52;;;;;;;41.87;18.27;;;-3.50;96.40;;;;;;5060775;28;20562;-77
2024/01/11 08:45:18;;;;;;;43.70;18.80;;;-3.40;96.50;;;;;;5055438;28;20572;-77
2024/01/11 08:47:46;;;;;;;46.47;19.63;;;-3.40;96.40;;;;;;5056625;28;20654;-77
2024/01/11 08:50:14;;;;;;;46.70;19.70;;;-3.40;96.70;;;;;;5055884;28;20200;-78
2024/01/11 08:52:41;;;;;;;46.37;20.50;;;-3.50;96.50;;;;;;5047827;28;20619;-76
2024/01/11 08:55:09;;;;;;;47.90;20.23;;;-3.50;96.80;;;;;;5058090;28;20198;-74
2024/01/11 08:57:37;;;;;;;42.80;18.90;;;-2.70;98.60;;;;;;5048631;28;20276;-76
2024/01/11 09:00:06;;;;;;;43.77;18.57;;;-2.90;95.50;;;;;;5054887;28;20204;-75
2024/01/11 09:02:51;;;;;;;37.20;17.97;;;-2.70;96.10;;;;;;5049165;28;20708;-76
2024/01/11 09:05:18;;;;;;;40.77;19.13;;;-2.40;95.10;;;;;;5048165;28;20217;-75
2024/01/11 09:07:45;;;;;;;39.10;17.90;;;-2.30;93.60;;;;;;5056175;28;20673;-78
2024/01/11 09:10:12;;;;;;;37.03;18.20;;;-2.50;93.70;;;;;;5054128;28;20228;-77
2024/01/11 09:12:40;;;;;;;38.23;18.77;;;-2.70;94.30;;;;;;5056184;28;20258;-77
2024/01/11 09:15:07;;;;;;;41.40;18.57;;;-2.90;94.90;;;;;;5043091;28;20199;-77
2024/01/11 09:17:34;;;;;;;41.43;18.57;;;-3.00;95.20;;;;;;5055665;28;20229;-80
2024/01/11 09:20:01;;;;;;;34.53;17.43;;;-3.10;95.80;;;;;;5052401;28;20201;-75
2024/01/11 09:22:29;;;;;;;38.87;19.50;;;-2.80;96.00;;;;;;5049659;28;20202;-77
2024/01/11 09:24:56;;;;;;;39.30;19.07;;;-2.80;95.10;;;;;;5051513;28;20205;-76
2024/01/11 09:27:22;;;;;;;40.13;18.60;;;-2.80;95.20;;;;;;5052383;28;20205;-75
2024/01/11 09:29:51;;;;;;;37.53;18.50;;;-2.60;95.70;;;;;;5050293;28;20205;-77
2024/01/11 09:32:18;;;;;;;37.37;18.90;;;-2.60;93.50;;;;;;5051457;28;20319;-77
2024/01/11 09:34:45;;;;;;;36.70;18.50;;;-2.50;93.50;;;;;;5052692;28;20205;-77
2024/01/11 09:37:12;;;;;;;39.73;19.57;;;-2.60;93.50;;;;;;5049009;28;20240;-80
2024/01/11 09:39:39;;;;;;;37.53;19.47;;;-2.70;93.50;;;;;;5048804;28;20204;-79
2024/01/11 09:42:09;;;;;;;38.57;18.40;;;-2.60;93.50;;;;;;5052384;28;20197;-76
2024/01/11 09:44:37;;;;;;;37.63;18.50;;;-2.50;92.80;;;;;;5050697;28;20194;-75
2024/01/11 09:47:08;;;;;;;36.10;18.93;;;-2.40;93.50;;;;;;5050885;28;20205;-76
2024/01/11 09:49:37;;;;;;;44.53;21.20;;;-2.30;94.00;;;;;;5043648;28;20585;-75
2024/01/11 09:52:08;;;;;;;42.27;20.47;;;-2.40;92.40;;;;;;5049902;28;20193;-75
2024/01/11 09:54:36;;;;;;;44.83;20.73;;;-2.80;92.80;;;;;;5048747;28;20205;-75
2024/01/11 09:57:04;;;;;;;43.83;21.73;;;-3.10;93.40;;;;;;5051384;28;20217;-76
2024/01/11 09:59:32;;;;;;;43.07;22.17;;;-3.20;94.60;;;;;;5053556;28;20662;-75
2024/01/11 10:02:00;;;;;;;44.33;21.40;;;-2.90;94.50;;;;;;5052827;28;20193;-76
2024/01/11 10:04:28;;;;;;;45.80;22.00;;;-2.50;94.60;;;;;;5055223;28;20227;-78
2024/01/11 10:06:57;;;;;;;41.40;21.17;;;-2.40;93.50;;;;;;5054101;28;20206;-81
2024/01/11 10:09:24;;;;;;;41.00;21.17;;;-2.70;93.10;;;;;;5055530;28;20658;-78
2024/01/11 10:11:53;;;;;;;47.73;21.43;;;-2.90;93.40;;;;;;5041674;28;20605;-78
2024/01/11 10:14:21;;;;;;;42.40;20.50;;;-2.90;94.00;;;;;;5069780;28;20260;-76
2024/01/11 10:16:48;;;;;;;46.23;21.40;;;-2.50;95.00;;;;;;5056981;28;20233;-79
2024/01/11 10:19:16;;;;;;;41.87;20.97;;;-2.50;93.60;;;;;;5050720;28;20225;-76
2024/01/11 10:21:48;;;;;;;46.63;21.50;;;-2.60;93.50;;;;;;5056775;28;20193;-75
2024/01/11 10:24:20;;;;;;;36.33;20.83;;;-2.30;94.00;;;;;;5056588;28;20199;-75
2024/01/11 10:29:31;;;;;;;39.27;20.33;;;-1.80;91.90;;;;;;5055283;28;20940;-77
2024/01/11 10:31:57;;;;;;;39.67;20.77;;;-1.70;92.00;;;;;;5055518;28;20223;-77
2024/01/11 10:34:25;;;;;;;41.67;21.03;;;-1.70;92.30;;;;;;5061012;28;20229;-75
2024/01/11 10:36:56;;;;;;;42.90;21.13;;;-1.90;92.40;;;;;;5059605;28;20217;-77
2024/01/11 10:39:26;;;;;;;43.27;21.27;;;-1.80;93.60;;;;;;5069879;28;20197;-77
2024/01/11 10:42:04;;;;;;;43.37;21.03;;;-1.50;92.00;;;;;;5063759;28;20784;-76
2024/01/11 10:44:34;;;;;;;44.13;22.03;;;-1.70;91.90;;;;;;5064812;28;20668;-76
2024/01/11 10:47:04;;;;;;;44.03;21.53;;;-1.60;91.40;;;;;;5062851;28;20208;-76
2024/01/11 10:49:33;;;;;;;41.27;20.83;;;-1.70;91.80;;;;;;5053576;28;20745;-76
2024/01/11 10:52:04;;;;;;;46.30;21.70;;;-1.40;92.30;;;;;;5053169;28;20204;-77
2024/01/11 10:54:32;;;;;;;39.77;20.60;;;-1.10;91.50;;;;;;5057062;28;20256;-77
2024/01/11 10:57:00;;;;;;;43.13;22.10;;;-1.00;91.20;;;;;;5056337;28;20214;-78
2024/01/11 10:59:28;;;;;;;43.57;22.43;;;-1.40;91.20;;;;;;5055961;28;20662;-77
2024/01/11 11:01:56;;;;;;;43.17;20.77;;;-1.60;91.90;;;;;;5053497;28;20203;-78
2024/01/11 11:04:25;;;;;;;38.63;21.07;;;-1.70;92.60;;;;;;5052400;28;20231;-78
2024/01/11 11:06:56;;;;;;;44.90;23.30;;;-1.60;93.40;;;;;;5054455;28;20198;-77
2024/01/11 11:09:25;;;;;;;48.00;23.70;;;-1.50;92.90;;;;;;5054538;28;20213;-78
2024/01/11 11:11:56;;;;;;;51.10;24.90;;;-1.70;92.80;;;;;;5052346;28;20228;-76
2024/01/11 11:14:23;;;;;;;50.27;27.57;;;-1.90;93.20;;;;;;5052161;28;20208;-77
2024/01/11 11:16:51;;;;;;;51.40;25.33;;;-2.00;93.10;;;;;;5054390;28;20212;-76
2024/01/11 11:19:20;;;;;;;55.80;28.30;;;-1.90;93.20;;;;;;5045508;28;20226;-79
2024/01/11 11:21:48;;;;;;;58.90;27.67;;;-1.80;93.60;;;;;;5058777;28;20197;-78
2024/01/11 11:24:17;;;;;;;54.47;27.70;;;-1.90;93.10;;;;;;5066583;28;20203;-77
2024/01/11 11:26:45;;;;;;;52.67;25.90;;;-1.90;93.60;;;;;;5051885;28;20200;-76
2024/01/11 11:29:12;;;;;;;54.43;27.27;;;-1.90;93.80;;;;;;5047654;28;20217;-74
2024/01/11 11:31:45;;;;;;;55.10;28.33;;;-1.90;93.60;;;;;;5052718;28;20213;-74
2024/01/11 11:34:12;;;;;;;54.80;27.33;;;-1.90;93.60;;;;;;5054074;28;20288;-74
2024/01/11 11:36:41;;;;;;;56.87;28.33;;;-1.90;93.60;;;;;;5051986;28;20205;-77
2024/01/11 11:39:12;;;;;;;57.63;28.13;;;-2.10;93.70;;;;;;5047463;28;20197;-75
2024/01/11 11:41:39;;;;;;;54.90;28.20;;;-2.00;93.60;;;;;;5055854;28;20194;-77
2024/01/11 11:44:08;;;;;;;59.07;28.73;;;-1.80;93.90;;;;;;5053823;28;20225;-76
2024/01/11 11:46:35;;;;;;;53.63;28.40;;;-1.80;93.60;;;;;;5048689;28;20233;-77
2024/01/11 11:49:01;;;;;;;55.00;28.57;;;-1.60;93.70;;;;;;5055848;28;20654;-75
2024/01/11 11:51:28;;;;;;;58.67;28.93;;;-1.70;93.70;;;;;;5055958;28;20213;-74
2024/01/11 11:54:09;;;;;;;52.20;27.37;;;-1.50;93.50;;;;;;5054544;28;20198;-77
2024/01/11 11:56:45;;;;;;;60.13;29.03;;;-1.30;93.10;;;;;;5051488;28;20256;-76
2024/01/11 11:59:13;;;;;;;58.60;29.23;;;-1.10;92.50;;;;;;5057248;28;20283;-76
2024/01/11 12:01:40;;;;;;;61.57;30.03;;;-0.90;92.40;;;;;;5052758;28;20911;-79
2024/01/11 12:04:09;;;;;;;56.97;29.30;;;-0.90;91.30;;;;;;5054952;28;20220;-77
2024/01/11 12:06:36;;;;;;;63.63;30.17;;;-0.90;91.20;;;;;;5049625;28;20214;-78
2024/01/11 12:09:03;;;;;;;58.83;28.93;;;-1.00;91.50;;;;;;5057199;28;20205;-77
2024/01/11 12:11:31;;;;;;;56.17;26.40;;;-1.00;91.50;;;;;;5051782;28;20215;-77
2024/01/11 12:13:58;;;;;;;62.00;29.00;;;-0.80;91.60;;;;;;5052195;28;20194;-76
2024/01/11 12:16:27;;;;;;;56.37;27.97;;;-0.80;91.20;;;;;;5052853;28;20251;-79
2024/01/11 12:18:54;;;;;;;61.37;26.70;;;-1.10;91.50;;;;;;5055371;28;20228;-78
2024/01/11 12:21:21;;;;;;;58.00;27.70;;;-1.30;92.20;;;;;;5057474;28;20194;-77
2024/01/11 12:23:48;;;;;;;57.20;26.83;;;-1.20;92.80;;;;;;5060146;28;20189;-77
2024/01/11 12:26:16;;;;;;;47.70;25.07;;;-1.30;92.70;;;;;;5034172;28;20198;-78
2024/01/11 12:28:43;;;;;;;47.80;24.63;;;-1.30;92.50;;;;;;5058523;28;20653;-79
2024/01/11 12:31:11;;;;;;;50.67;25.27;;;-1.40;92.70;;;;;;5057566;28;20193;-77